sensor_id;sensor_type;location;lat;lon;timestamp;P1;durP1;ratioP1;P2;durP2;ratioP2
81896;SDS011;71360;43.506;1.500;2023-12-14T00:01:57;5.75;;;1.52;;
81896;SDS011;71360;43.506;1.500;2023-12-14T00:04:22;7.60;;;1.60;;
81896;SDS011;71360;43.506;1.500;2023-12-14T00:06:50;7.80;;;1.50;;
81896;SDS011;71360;43.506;1.500;2023-12-14T00:09:19;5.83;;;1.50;;
81896;SDS011;71360;43.506;1.500;2023-12-14T00:11:47;7.95;;;1.40;;
81896;SDS011;71360;43.506;1.500;2023-12-14T00:14:13;4.40;;;1.40;;
81896;SDS011;71360;43.506;1.500;2023-12-14T00:16:38;4.37;;;1.40;;
81896;SDS011;71360;43.506;1.500;2023-12-14T00:19:04;5.13;;;1.42;;
81896;SDS011;71360;43.506;1.500;2023-12-14T00:21:30;8.40;;;1.70;;
81896;SDS011;71360;43.506;1.500;2023-12-14T00:23:55;6.60;;;1.63;;
81896;SDS011;71360;43.506;1.500;2023-12-14T00:26:21;4.87;;;1.60;;
81896;SDS011;71360;43.506;1.500;2023-12-14T00:28:46;6.53;;;1.53;;
81896;SDS011;71360;43.506;1.500;2023-12-14T00:31:12;5.03;;;1.80;;
81896;SDS011;71360;43.506;1.500;2023-12-14T00:33:37;6.80;;;1.70;;
81896;SDS011;71360;43.506;1.500;2023-12-14T00:36:03;5.97;;;1.40;;
81896;SDS011;71360;43.506;1.500;2023-12-14T00:38:28;6.07;;;1.55;;
81896;SDS011;71360;43.506;1.500;2023-12-14T00:40:54;6.83;;;1.70;;
81896;SDS011;71360;43.506;1.500;2023-12-14T00:43:19;6.57;;;1.70;;
81896;SDS011;71360;43.506;1.500;2023-12-14T00:45:45;5.22;;;1.60;;
81896;SDS011;71360;43.506;1.500;2023-12-14T00:48:11;7.10;;;1.70;;
81896;SDS011;71360;43.506;1.500;2023-12-14T00:50:36;5.88;;;1.83;;
81896;SDS011;71360;43.506;1.500;2023-12-14T00:53:01;8.70;;;1.60;;
81896;SDS011;71360;43.506;1.500;2023-12-14T00:55:27;4.80;;;1.50;;
81896;SDS011;71360;43.506;1.500;2023-12-14T00:57:52;4.80;;;1.40;;
81896;SDS011;71360;43.506;1.500;2023-12-14T01:00:18;7.85;;;1.70;;
81896;SDS011;71360;43.506;1.500;2023-12-14T01:02:44;4.97;;;1.40;;
81896;SDS011;71360;43.506;1.500;2023-12-14T01:05:09;8.48;;;2.08;;
81896;SDS011;71360;43.506;1.500;2023-12-14T01:07:35;7.23;;;2.00;;
81896;SDS011;71360;43.506;1.500;2023-12-14T01:10:00;5.73;;;1.43;;
81896;SDS011;71360;43.506;1.500;2023-12-14T01:12:27;6.20;;;1.93;;
81896;SDS011;71360;43.506;1.500;2023-12-14T01:14:53;6.88;;;2.10;;
81896;SDS011;71360;43.506;1.500;2023-12-14T01:17:19;6.97;;;2.20;;
81896;SDS011;71360;43.506;1.500;2023-12-14T01:19:44;9.32;;;2.35;;
81896;SDS011;71360;43.506;1.500;2023-12-14T01:22:10;9.63;;;2.07;;
81896;SDS011;71360;43.506;1.500;2023-12-14T01:24:35;7.63;;;2.00;;
81896;SDS011;71360;43.506;1.500;2023-12-14T01:27:01;7.32;;;2.40;;
81896;SDS011;71360;43.506;1.500;2023-12-14T01:29:26;13.00;;;3.93;;
81896;SDS011;71360;43.506;1.500;2023-12-14T01:31:52;9.23;;;3.30;;
81896;SDS011;71360;43.506;1.500;2023-12-14T01:34:17;7.23;;;2.30;;
81896;SDS011;71360;43.506;1.500;2023-12-14T01:36:42;6.88;;;2.13;;
81896;SDS011;71360;43.506;1.500;2023-12-14T01:39:08;9.93;;;2.70;;
81896;SDS011;71360;43.506;1.500;2023-12-14T01:41:33;8.80;;;2.50;;
81896;SDS011;71360;43.506;1.500;2023-12-14T01:43:59;10.03;;;3.37;;
81896;SDS011;71360;43.506;1.500;2023-12-14T01:46:24;8.82;;;2.88;;
81896;SDS011;71360;43.506;1.500;2023-12-14T01:48:50;6.73;;;2.10;;
81896;SDS011;71360;43.506;1.500;2023-12-14T01:51:17;8.63;;;2.20;;
81896;SDS011;71360;43.506;1.500;2023-12-14T01:53:42;9.20;;;2.00;;
81896;SDS011;71360;43.506;1.500;2023-12-14T01:56:08;5.32;;;1.83;;
81896;SDS011;71360;43.506;1.500;2023-12-14T01:58:33;6.87;;;1.97;;
81896;SDS011;71360;43.506;1.500;2023-12-14T02:03:31;5.85;;;1.80;;
81896;SDS011;71360;43.506;1.500;2023-12-14T02:05:56;8.15;;;1.95;;
81896;SDS011;71360;43.506;1.500;2023-12-14T02:08:23;5.80;;;1.80;;
81896;SDS011;71360;43.506;1.500;2023-12-14T02:10:49;8.00;;;1.90;;
81896;SDS011;71360;43.506;1.500;2023-12-14T02:13:15;6.20;;;2.05;;
81896;SDS011;71360;43.506;1.500;2023-12-14T02:15:40;6.67;;;1.73;;
81896;SDS011;71360;43.506;1.500;2023-12-14T02:18:06;8.15;;;2.10;;
81896;SDS011;71360;43.506;1.500;2023-12-14T02:20:32;8.90;;;2.07;;
81896;SDS011;71360;43.506;1.500;2023-12-14T02:22:57;5.13;;;1.73;;
81896;SDS011;71360;43.506;1.500;2023-12-14T02:25:23;9.98;;;2.05;;
81896;SDS011;71360;43.506;1.500;2023-12-14T02:27:49;5.57;;;2.22;;
81896;SDS011;71360;43.506;1.500;2023-12-14T02:30:16;9.50;;;2.80;;
81896;SDS011;71360;43.506;1.500;2023-12-14T02:32:42;10.18;;;2.28;;
81896;SDS011;71360;43.506;1.500;2023-12-14T02:35:08;7.60;;;2.30;;
81896;SDS011;71360;43.506;1.500;2023-12-14T02:37:34;8.27;;;2.10;;
81896;SDS011;71360;43.506;1.500;2023-12-14T02:40:05;6.68;;;2.45;;
81896;SDS011;71360;43.506;1.500;2023-12-14T02:42:32;8.52;;;2.47;;
81896;SDS011;71360;43.506;1.500;2023-12-14T02:44:57;6.20;;;2.10;;
81896;SDS011;71360;43.506;1.500;2023-12-14T02:47:23;7.27;;;2.20;;
81896;SDS011;71360;43.506;1.500;2023-12-14T02:49:48;8.10;;;1.90;;
81896;SDS011;71360;43.506;1.500;2023-12-14T02:52:14;5.63;;;1.97;;
81896;SDS011;71360;43.506;1.500;2023-12-14T02:54:39;5.23;;;1.80;;
81896;SDS011;71360;43.506;1.500;2023-12-14T02:57:05;9.20;;;2.20;;
81896;SDS011;71360;43.506;1.500;2023-12-14T02:59:31;6.25;;;2.05;;
81896;SDS011;71360;43.506;1.500;2023-12-14T03:01:58;7.90;;;2.40;;
81896;SDS011;71360;43.506;1.500;2023-12-14T03:04:26;5.93;;;2.20;;
81896;SDS011;71360;43.506;1.500;2023-12-14T03:06:52;6.67;;;2.20;;
81896;SDS011;71360;43.506;1.500;2023-12-14T03:09:17;7.97;;;3.35;;
81896;SDS011;71360;43.506;1.500;2023-12-14T03:11:44;6.13;;;2.00;;
81896;SDS011;71360;43.506;1.500;2023-12-14T03:14:10;6.80;;;2.70;;
81896;SDS011;71360;43.506;1.500;2023-12-14T03:16:36;5.97;;;2.40;;
81896;SDS011;71360;43.506;1.500;2023-12-14T03:19:02;8.75;;;2.80;;
81896;SDS011;71360;43.506;1.500;2023-12-14T03:21:28;6.87;;;2.23;;
81896;SDS011;71360;43.506;1.500;2023-12-14T03:23:54;11.63;;;3.08;;
81896;SDS011;71360;43.506;1.500;2023-12-14T03:26:21;6.32;;;2.10;;
81896;SDS011;71360;43.506;1.500;2023-12-14T03:28:47;5.80;;;2.20;;
81896;SDS011;71360;43.506;1.500;2023-12-14T03:31:13;7.38;;;2.30;;
81896;SDS011;71360;43.506;1.500;2023-12-14T03:33:39;8.47;;;2.00;;
81896;SDS011;71360;43.506;1.500;2023-12-14T03:36:05;5.80;;;2.10;;
81896;SDS011;71360;43.506;1.500;2023-12-14T03:38:31;6.05;;;2.15;;
81896;SDS011;71360;43.506;1.500;2023-12-14T03:40:57;5.90;;;2.10;;
81896;SDS011;71360;43.506;1.500;2023-12-14T03:43:22;6.67;;;2.20;;
81896;SDS011;71360;43.506;1.500;2023-12-14T03:45:48;5.63;;;2.17;;
81896;SDS011;71360;43.506;1.500;2023-12-14T03:48:13;9.43;;;2.30;;
81896;SDS011;71360;43.506;1.500;2023-12-14T03:50:39;6.87;;;2.23;;
81896;SDS011;71360;43.506;1.500;2023-12-14T03:53:04;6.10;;;2.30;;
81896;SDS011;71360;43.506;1.500;2023-12-14T03:55:30;6.82;;;2.22;;
81896;SDS011;71360;43.506;1.500;2023-12-14T03:57:55;8.43;;;2.40;;
81896;SDS011;71360;43.506;1.500;2023-12-14T04:00:21;7.17;;;2.50;;
81896;SDS011;71360;43.506;1.500;2023-12-14T04:02:46;9.00;;;2.50;;
81896;SDS011;71360;43.506;1.500;2023-12-14T04:05:12;8.83;;;2.47;;
81896;SDS011;71360;43.506;1.500;2023-12-14T04:07:37;6.67;;;2.20;;
81896;SDS011;71360;43.506;1.500;2023-12-14T04:10:14;12.40;;;2.50;;
81896;SDS011;71360;43.506;1.500;2023-12-14T04:12:40;7.68;;;2.50;;
81896;SDS011;71360;43.506;1.500;2023-12-14T04:15:06;9.93;;;2.77;;
81896;SDS011;71360;43.506;1.500;2023-12-14T04:17:33;7.47;;;2.47;;
81896;SDS011;71360;43.506;1.500;2023-12-14T04:19:58;8.43;;;2.57;;
81896;SDS011;71360;43.506;1.500;2023-12-14T04:22:25;9.05;;;2.70;;
81896;SDS011;71360;43.506;1.500;2023-12-14T04:24:51;7.25;;;2.63;;
81896;SDS011;71360;43.506;1.500;2023-12-14T04:27:16;7.13;;;2.57;;
81896;SDS011;71360;43.506;1.500;2023-12-14T04:29:42;7.72;;;3.00;;
81896;SDS011;71360;43.506;1.500;2023-12-14T04:32:07;7.00;;;2.60;;
81896;SDS011;71360;43.506;1.500;2023-12-14T04:34:34;6.70;;;2.60;;
81896;SDS011;71360;43.506;1.500;2023-12-14T04:37:00;8.27;;;3.37;;
81896;SDS011;71360;43.506;1.500;2023-12-14T04:39:25;8.90;;;3.00;;
81896;SDS011;71360;43.506;1.500;2023-12-14T04:41:52;7.10;;;2.83;;
81896;SDS011;71360;43.506;1.500;2023-12-14T04:44:18;8.48;;;2.95;;
81896;SDS011;71360;43.506;1.500;2023-12-14T04:46:44;7.47;;;2.92;;
81896;SDS011;71360;43.506;1.500;2023-12-14T04:49:09;6.10;;;3.07;;
81896;SDS011;71360;43.506;1.500;2023-12-14T04:51:35;9.40;;;3.53;;
81896;SDS011;71360;43.506;1.500;2023-12-14T04:54:00;8.07;;;3.00;;
81896;SDS011;71360;43.506;1.500;2023-12-14T04:56:28;9.25;;;2.97;;
81896;SDS011;71360;43.506;1.500;2023-12-14T04:58:54;7.47;;;3.30;;
81896;SDS011;71360;43.506;1.500;2023-12-14T05:01:19;7.30;;;3.00;;
81896;SDS011;71360;43.506;1.500;2023-12-14T05:03:45;8.07;;;3.30;;
81896;SDS011;71360;43.506;1.500;2023-12-14T05:06:10;7.10;;;3.10;;
81896;SDS011;71360;43.506;1.500;2023-12-14T05:08:36;7.20;;;2.97;;
81896;SDS011;71360;43.506;1.500;2023-12-14T05:11:02;7.33;;;2.87;;
81896;SDS011;71360;43.506;1.500;2023-12-14T05:13:28;6.28;;;3.00;;
81896;SDS011;71360;43.506;1.500;2023-12-14T05:15:59;7.77;;;3.03;;
81896;SDS011;71360;43.506;1.500;2023-12-14T05:18:26;7.22;;;2.90;;
81896;SDS011;71360;43.506;1.500;2023-12-14T05:20:52;10.55;;;2.92;;
81896;SDS011;71360;43.506;1.500;2023-12-14T05:23:17;6.97;;;2.90;;
81896;SDS011;71360;43.506;1.500;2023-12-14T05:25:43;7.93;;;2.90;;
81896;SDS011;71360;43.506;1.500;2023-12-14T05:28:09;7.57;;;2.80;;
81896;SDS011;71360;43.506;1.500;2023-12-14T05:30:35;8.93;;;2.53;;
81896;SDS011;71360;43.506;1.500;2023-12-14T05:33:02;8.75;;;3.08;;
81896;SDS011;71360;43.506;1.500;2023-12-14T05:35:28;7.70;;;2.93;;
81896;SDS011;71360;43.506;1.500;2023-12-14T05:37:53;6.78;;;2.53;;
81896;SDS011;71360;43.506;1.500;2023-12-14T05:40:19;11.07;;;2.73;;
81896;SDS011;71360;43.506;1.500;2023-12-14T05:42:44;7.77;;;2.50;;
81896;SDS011;71360;43.506;1.500;2023-12-14T05:45:10;8.35;;;2.50;;
81896;SDS011;71360;43.506;1.500;2023-12-14T05:47:36;9.40;;;2.80;;
81896;SDS011;71360;43.506;1.500;2023-12-14T05:50:02;5.95;;;2.55;;
81896;SDS011;71360;43.506;1.500;2023-12-14T05:52:28;9.48;;;2.75;;
81896;SDS011;71360;43.506;1.500;2023-12-14T05:54:54;8.97;;;3.07;;
81896;SDS011;71360;43.506;1.500;2023-12-14T05:57:19;9.33;;;2.60;;
81896;SDS011;71360;43.506;1.500;2023-12-14T05:59:44;9.10;;;2.90;;
81896;SDS011;71360;43.506;1.500;2023-12-14T06:02:10;9.45;;;2.72;;
81896;SDS011;71360;43.506;1.500;2023-12-14T06:04:35;10.77;;;3.10;;
81896;SDS011;71360;43.506;1.500;2023-12-14T06:07:01;8.93;;;3.20;;
81896;SDS011;71360;43.506;1.500;2023-12-14T06:09:27;9.40;;;3.13;;
81896;SDS011;71360;43.506;1.500;2023-12-14T06:12:02;8.82;;;3.50;;
81896;SDS011;71360;43.506;1.500;2023-12-14T06:14:28;7.20;;;2.90;;
81896;SDS011;71360;43.506;1.500;2023-12-14T06:16:54;7.73;;;2.80;;
81896;SDS011;71360;43.506;1.500;2023-12-14T06:19:19;7.47;;;2.80;;
81896;SDS011;71360;43.506;1.500;2023-12-14T06:21:45;7.57;;;2.77;;
81896;SDS011;71360;43.506;1.500;2023-12-14T06:24:10;7.97;;;2.50;;
81896;SDS011;71360;43.506;1.500;2023-12-14T06:26:40;9.43;;;2.83;;
81896;SDS011;71360;43.506;1.500;2023-12-14T06:29:07;7.28;;;2.80;;
81896;SDS011;71360;43.506;1.500;2023-12-14T06:31:32;7.20;;;2.63;;
81896;SDS011;71360;43.506;1.500;2023-12-14T06:33:58;6.78;;;2.40;;
81896;SDS011;71360;43.506;1.500;2023-12-14T06:36:25;9.38;;;2.40;;
81896;SDS011;71360;43.506;1.500;2023-12-14T06:38:54;7.38;;;2.55;;
81896;SDS011;71360;43.506;1.500;2023-12-14T06:41:23;9.45;;;2.50;;
81896;SDS011;71360;43.506;1.500;2023-12-14T06:43:49;8.37;;;2.67;;
81896;SDS011;71360;43.506;1.500;2023-12-14T06:46:15;7.95;;;2.45;;
81896;SDS011;71360;43.506;1.500;2023-12-14T06:48:41;8.97;;;2.60;;
81896;SDS011;71360;43.506;1.500;2023-12-14T06:51:07;6.25;;;2.42;;
81896;SDS011;71360;43.506;1.500;2023-12-14T06:53:33;8.13;;;2.30;;
81896;SDS011;71360;43.506;1.500;2023-12-14T06:55:59;8.77;;;2.20;;
81896;SDS011;71360;43.506;1.500;2023-12-14T06:58:24;8.00;;;2.30;;
81896;SDS011;71360;43.506;1.500;2023-12-14T07:00:50;11.50;;;2.50;;
81896;SDS011;71360;43.506;1.500;2023-12-14T07:03:16;8.25;;;2.47;;
81896;SDS011;71360;43.506;1.500;2023-12-14T07:05:41;8.97;;;2.63;;
81896;SDS011;71360;43.506;1.500;2023-12-14T07:08:07;9.87;;;2.40;;
81896;SDS011;71360;43.506;1.500;2023-12-14T07:10:32;8.00;;;2.42;;
81896;SDS011;71360;43.506;1.500;2023-12-14T07:12:59;8.47;;;2.60;;
81896;SDS011;71360;43.506;1.500;2023-12-14T07:15:24;8.32;;;2.38;;
81896;SDS011;71360;43.506;1.500;2023-12-14T07:17:50;9.93;;;2.40;;
81896;SDS011;71360;43.506;1.500;2023-12-14T07:20:15;6.53;;;2.20;;
81896;SDS011;71360;43.506;1.500;2023-12-14T07:22:41;6.18;;;2.15;;
81896;SDS011;71360;43.506;1.500;2023-12-14T07:25:18;12.32;;;2.20;;
81896;SDS011;71360;43.506;1.500;2023-12-14T07:27:43;9.77;;;2.40;;
81896;SDS011;71360;43.506;1.500;2023-12-14T07:30:11;10.82;;;2.80;;
81896;SDS011;71360;43.506;1.500;2023-12-14T07:32:37;11.77;;;2.40;;
81896;SDS011;71360;43.506;1.500;2023-12-14T07:35:03;8.60;;;2.38;;
81896;SDS011;71360;43.506;1.500;2023-12-14T07:37:29;6.93;;;2.20;;
81896;SDS011;71360;43.506;1.500;2023-12-14T07:39:54;8.63;;;2.27;;
81896;SDS011;71360;43.506;1.500;2023-12-14T07:42:20;8.13;;;2.30;;
81896;SDS011;71360;43.506;1.500;2023-12-14T07:44:46;8.47;;;2.37;;
81896;SDS011;71360;43.506;1.500;2023-12-14T07:47:11;5.72;;;2.25;;
81896;SDS011;71360;43.506;1.500;2023-12-14T07:49:37;10.00;;;2.40;;
81896;SDS011;71360;43.506;1.500;2023-12-14T07:52:03;8.77;;;2.45;;
81896;SDS011;71360;43.506;1.500;2023-12-14T07:54:28;9.83;;;3.00;;
81896;SDS011;71360;43.506;1.500;2023-12-14T07:56:54;7.57;;;2.45;;
81896;SDS011;71360;43.506;1.500;2023-12-14T07:59:19;7.80;;;2.20;;
81896;SDS011;71360;43.506;1.500;2023-12-14T08:01:46;7.63;;;2.00;;
81896;SDS011;71360;43.506;1.500;2023-12-14T08:04:11;6.07;;;2.20;;
81896;SDS011;71360;43.506;1.500;2023-12-14T08:06:37;6.97;;;2.23;;
81896;SDS011;71360;43.506;1.500;2023-12-14T08:09:04;6.45;;;2.25;;
81896;SDS011;71360;43.506;1.500;2023-12-14T08:11:31;9.90;;;2.23;;
81896;SDS011;71360;43.506;1.500;2023-12-14T08:13:56;9.50;;;2.00;;
81896;SDS011;71360;43.506;1.500;2023-12-14T08:16:22;8.23;;;2.20;;
81896;SDS011;71360;43.506;1.500;2023-12-14T08:18:47;6.93;;;1.98;;
81896;SDS011;71360;43.506;1.500;2023-12-14T08:21:13;7.83;;;2.00;;
81896;SDS011;71360;43.506;1.500;2023-12-14T08:23:39;8.48;;;2.00;;
81896;SDS011;71360;43.506;1.500;2023-12-14T08:26:05;8.77;;;2.10;;
81896;SDS011;71360;43.506;1.500;2023-12-14T08:28:33;10.15;;;2.25;;
81896;SDS011;71360;43.506;1.500;2023-12-14T08:30:58;9.93;;;2.05;;
81896;SDS011;71360;43.506;1.500;2023-12-14T08:33:27;6.67;;;2.30;;
81896;SDS011;71360;43.506;1.500;2023-12-14T08:35:52;10.38;;;2.72;;
81896;SDS011;71360;43.506;1.500;2023-12-14T08:38:17;9.10;;;2.30;;
81896;SDS011;71360;43.506;1.500;2023-12-14T08:40:43;7.03;;;1.93;;
81896;SDS011;71360;43.506;1.500;2023-12-14T08:43:10;8.02;;;2.10;;
81896;SDS011;71360;43.506;1.500;2023-12-14T08:45:35;13.23;;;2.30;;
81896;SDS011;71360;43.506;1.500;2023-12-14T08:48:01;7.25;;;2.10;;
81896;SDS011;71360;43.506;1.500;2023-12-14T08:50:26;8.30;;;2.20;;
81896;SDS011;71360;43.506;1.500;2023-12-14T08:52:52;6.33;;;2.03;;
81896;SDS011;71360;43.506;1.500;2023-12-14T08:55:18;10.18;;;1.98;;
81896;SDS011;71360;43.506;1.500;2023-12-14T08:57:43;8.33;;;1.87;;
81896;SDS011;71360;43.506;1.500;2023-12-14T09:00:09;8.38;;;2.35;;
81896;SDS011;71360;43.506;1.500;2023-12-14T09:02:35;8.32;;;2.00;;
81896;SDS011;71360;43.506;1.500;2023-12-14T09:05:01;9.87;;;2.27;;
81896;SDS011;71360;43.506;1.500;2023-12-14T09:07:27;8.98;;;1.90;;
81896;SDS011;71360;43.506;1.500;2023-12-14T09:09:53;7.97;;;1.97;;
81896;SDS011;71360;43.506;1.500;2023-12-14T09:12:22;6.80;;;2.00;;
81896;SDS011;71360;43.506;1.500;2023-12-14T09:14:48;7.27;;;1.90;;
81896;SDS011;71360;43.506;1.500;2023-12-14T09:17:13;7.72;;;2.20;;
81896;SDS011;71360;43.506;1.500;2023-12-14T09:19:39;6.00;;;1.97;;
81896;SDS011;71360;43.506;1.500;2023-12-14T09:22:04;6.63;;;1.90;;
81896;SDS011;71360;43.506;1.500;2023-12-14T09:24:31;8.23;;;2.30;;
81896;SDS011;71360;43.506;1.500;2023-12-14T09:26:56;9.10;;;2.25;;
81896;SDS011;71360;43.506;1.500;2023-12-14T09:29:22;11.93;;;2.20;;
81896;SDS011;71360;43.506;1.500;2023-12-14T09:31:47;9.00;;;2.10;;
81896;SDS011;71360;43.506;1.500;2023-12-14T09:34:13;6.90;;;2.00;;
81896;SDS011;71360;43.506;1.500;2023-12-14T09:36:39;7.57;;;1.70;;
81896;SDS011;71360;43.506;1.500;2023-12-14T09:39:05;8.18;;;2.10;;
81896;SDS011;71360;43.506;1.500;2023-12-14T09:41:30;7.47;;;2.30;;
81896;SDS011;71360;43.506;1.500;2023-12-14T09:43:56;8.30;;;2.30;;
81896;SDS011;71360;43.506;1.500;2023-12-14T09:46:22;11.27;;;2.87;;
81896;SDS011;71360;43.506;1.500;2023-12-14T09:48:50;8.68;;;2.20;;
81896;SDS011;71360;43.506;1.500;2023-12-14T09:51:16;10.47;;;2.57;;
81896;SDS011;71360;43.506;1.500;2023-12-14T09:53:42;8.80;;;2.03;;
81896;SDS011;71360;43.506;1.500;2023-12-14T09:56:08;9.80;;;2.20;;
81896;SDS011;71360;43.506;1.500;2023-12-14T09:58:33;7.33;;;1.90;;
81896;SDS011;71360;43.506;1.500;2023-12-14T10:00:59;7.60;;;2.05;;
81896;SDS011;71360;43.506;1.500;2023-12-14T10:03:29;8.20;;;2.30;;
81896;SDS011;71360;43.506;1.500;2023-12-14T10:05:57;7.87;;;1.97;;
81896;SDS011;71360;43.506;1.500;2023-12-14T10:08:24;9.40;;;1.92;;
81896;SDS011;71360;43.506;1.500;2023-12-14T10:10:51;8.50;;;2.08;;
81896;SDS011;71360;43.506;1.500;2023-12-14T10:13:21;8.63;;;2.10;;
81896;SDS011;71360;43.506;1.500;2023-12-14T10:16:00;6.68;;;2.00;;
81896;SDS011;71360;43.506;1.500;2023-12-14T10:18:25;6.80;;;1.63;;
81896;SDS011;71360;43.506;1.500;2023-12-14T10:20:51;8.10;;;1.90;;
81896;SDS011;71360;43.506;1.500;2023-12-14T10:23:17;8.18;;;2.20;;
81896;SDS011;71360;43.506;1.500;2023-12-14T10:25:43;10.50;;;2.00;;
81896;SDS011;71360;43.506;1.500;2023-12-14T10:28:11;7.73;;;1.83;;
81896;SDS011;71360;43.506;1.500;2023-12-14T10:30:38;7.75;;;2.00;;
81896;SDS011;71360;43.506;1.500;2023-12-14T10:33:04;8.02;;;2.00;;
81896;SDS011;71360;43.506;1.500;2023-12-14T10:35:29;6.97;;;1.97;;
81896;SDS011;71360;43.506;1.500;2023-12-14T10:37:55;7.07;;;1.80;;
81896;SDS011;71360;43.506;1.500;2023-12-14T10:40:23;7.32;;;1.60;;
81896;SDS011;71360;43.506;1.500;2023-12-14T10:42:50;8.02;;;1.95;;
81896;SDS011;71360;43.506;1.500;2023-12-14T10:45:16;8.02;;;1.98;;
81896;SDS011;71360;43.506;1.500;2023-12-14T10:47:45;6.60;;;2.10;;
81896;SDS011;71360;43.506;1.500;2023-12-14T10:50:12;8.38;;;2.03;;
81896;SDS011;71360;43.506;1.500;2023-12-14T10:52:41;9.23;;;2.20;;
81896;SDS011;71360;43.506;1.500;2023-12-14T10:55:11;6.82;;;1.90;;
81896;SDS011;71360;43.506;1.500;2023-12-14T10:57:51;7.85;;;1.90;;
81896;SDS011;71360;43.506;1.500;2023-12-14T11:00:18;9.60;;;2.00;;
81896;SDS011;71360;43.506;1.500;2023-12-14T11:02:46;5.97;;;1.60;;
81896;SDS011;71360;43.506;1.500;2023-12-14T11:05:13;6.97;;;1.67;;
81896;SDS011;71360;43.506;1.500;2023-12-14T11:10:28;11.48;;;1.67;;
81896;SDS011;71360;43.506;1.500;2023-12-14T11:13:01;6.43;;;1.70;;
81896;SDS011;71360;43.506;1.500;2023-12-14T11:15:34;5.35;;;1.63;;
81896;SDS011;71360;43.506;1.500;2023-12-14T11:23:09;7.13;;;1.73;;
81896;SDS011;71360;43.506;1.500;2023-12-14T11:25:35;4.47;;;1.50;;
81896;SDS011;71360;43.506;1.500;2023-12-14T11:28:04;8.00;;;1.80;;
81896;SDS011;71360;43.506;1.500;2023-12-14T11:30:33;7.03;;;1.63;;
81896;SDS011;71360;43.506;1.500;2023-12-14T11:33:00;7.78;;;1.92;;
81896;SDS011;71360;43.506;1.500;2023-12-14T11:35:25;6.40;;;1.60;;
81896;SDS011;71360;43.506;1.500;2023-12-14T11:37:50;5.77;;;1.53;;
81896;SDS011;71360;43.506;1.500;2023-12-14T11:40:18;5.20;;;1.45;;
81896;SDS011;71360;43.506;1.500;2023-12-14T11:43:00;8.75;;;1.60;;
81896;SDS011;71360;43.506;1.500;2023-12-14T11:45:29;5.00;;;1.73;;
81896;SDS011;71360;43.506;1.500;2023-12-14T11:47:54;5.82;;;1.60;;
81896;SDS011;71360;43.506;1.500;2023-12-14T11:50:20;7.33;;;1.50;;
81896;SDS011;71360;43.506;1.500;2023-12-14T11:52:50;6.70;;;1.73;;
81896;SDS011;71360;43.506;1.500;2023-12-14T11:55:15;6.88;;;1.60;;
81896;SDS011;71360;43.506;1.500;2023-12-14T11:57:47;7.17;;;1.63;;
81896;SDS011;71360;43.506;1.500;2023-12-14T12:00:14;4.57;;;1.50;;
81896;SDS011;71360;43.506;1.500;2023-12-14T12:02:40;7.35;;;1.70;;
81896;SDS011;71360;43.506;1.500;2023-12-14T12:05:06;7.87;;;1.70;;
81896;SDS011;71360;43.506;1.500;2023-12-14T12:07:32;6.22;;;1.70;;
81896;SDS011;71360;43.506;1.500;2023-12-14T12:09:58;6.03;;;1.80;;
81896;SDS011;71360;43.506;1.500;2023-12-14T12:12:24;7.63;;;2.10;;
81896;SDS011;71360;43.506;1.500;2023-12-14T12:14:49;7.93;;;1.70;;
81896;SDS011;71360;43.506;1.500;2023-12-14T12:17:18;4.78;;;1.40;;
81896;SDS011;71360;43.506;1.500;2023-12-14T12:19:44;5.53;;;1.60;;
81896;SDS011;71360;43.506;1.500;2023-12-14T12:22:10;4.13;;;1.48;;
81896;SDS011;71360;43.506;1.500;2023-12-14T12:24:36;3.70;;;1.30;;
81896;SDS011;71360;43.506;1.500;2023-12-14T12:27:02;4.17;;;1.40;;
81896;SDS011;71360;43.506;1.500;2023-12-14T12:29:29;5.68;;;1.30;;
81896;SDS011;71360;43.506;1.500;2023-12-14T12:31:54;5.25;;;1.30;;
81896;SDS011;71360;43.506;1.500;2023-12-14T12:34:20;4.93;;;1.57;;
81896;SDS011;71360;43.506;1.500;2023-12-14T12:36:45;6.30;;;1.30;;
81896;SDS011;71360;43.506;1.500;2023-12-14T12:39:11;6.45;;;1.70;;
81896;SDS011;71360;43.506;1.500;2023-12-14T12:41:37;6.00;;;1.50;;
81896;SDS011;71360;43.506;1.500;2023-12-14T12:44:05;4.10;;;1.30;;
81896;SDS011;71360;43.506;1.500;2023-12-14T12:46:34;5.93;;;1.50;;
81896;SDS011;71360;43.506;1.500;2023-12-14T12:49:00;5.13;;;1.23;;
81896;SDS011;71360;43.506;1.500;2023-12-14T12:51:26;4.45;;;1.40;;
81896;SDS011;71360;43.506;1.500;2023-12-14T12:53:53;5.97;;;1.40;;
81896;SDS011;71360;43.506;1.500;2023-12-14T12:56:19;6.00;;;1.30;;
81896;SDS011;71360;43.506;1.500;2023-12-14T12:58:44;5.95;;;1.33;;
81896;SDS011;71360;43.506;1.500;2023-12-14T13:01:10;5.13;;;1.47;;
81896;SDS011;71360;43.506;1.500;2023-12-14T13:03:36;5.07;;;1.30;;
81896;SDS011;71360;43.506;1.500;2023-12-14T13:06:01;7.20;;;1.47;;
81896;SDS011;71360;43.506;1.500;2023-12-14T13:08:28;6.55;;;1.30;;
81896;SDS011;71360;43.506;1.500;2023-12-14T13:10:53;8.07;;;1.23;;
81896;SDS011;71360;43.506;1.500;2023-12-14T13:13:19;6.38;;;1.25;;
81896;SDS011;71360;43.506;1.500;2023-12-14T13:15:44;4.83;;;1.40;;
81896;SDS011;71360;43.506;1.500;2023-12-14T13:18:10;4.73;;;1.43;;
81896;SDS011;71360;43.506;1.500;2023-12-14T13:20:35;7.65;;;1.48;;
81896;SDS011;71360;43.506;1.500;2023-12-14T13:23:01;6.63;;;1.47;;
81896;SDS011;71360;43.506;1.500;2023-12-14T13:25:29;8.32;;;1.52;;
81896;SDS011;71360;43.506;1.500;2023-12-14T13:27:55;5.67;;;1.70;;
81896;SDS011;71360;43.506;1.500;2023-12-14T13:30:20;4.90;;;1.40;;
81896;SDS011;71360;43.506;1.500;2023-12-14T13:32:47;5.70;;;1.60;;
81896;SDS011;71360;43.506;1.500;2023-12-14T13:35:13;5.55;;;1.45;;
81896;SDS011;71360;43.506;1.500;2023-12-14T13:37:38;4.07;;;1.37;;
81896;SDS011;71360;43.506;1.500;2023-12-14T13:40:04;6.77;;;1.97;;
81896;SDS011;71360;43.506;1.500;2023-12-14T13:42:30;7.03;;;1.70;;
81896;SDS011;71360;43.506;1.500;2023-12-14T13:44:56;6.05;;;1.55;;
81896;SDS011;71360;43.506;1.500;2023-12-14T13:47:21;7.23;;;1.40;;
81896;SDS011;71360;43.506;1.500;2023-12-14T13:49:47;4.78;;;1.50;;
81896;SDS011;71360;43.506;1.500;2023-12-14T13:52:13;6.93;;;1.70;;
81896;SDS011;71360;43.506;1.500;2023-12-14T13:54:38;6.17;;;1.87;;
81896;SDS011;71360;43.506;1.500;2023-12-14T13:57:04;6.88;;;1.83;;
81896;SDS011;71360;43.506;1.500;2023-12-14T13:59:29;5.13;;;1.70;;
81896;SDS011;71360;43.506;1.500;2023-12-14T14:01:55;10.80;;;3.95;;
81896;SDS011;71360;43.506;1.500;2023-12-14T14:04:21;10.77;;;3.50;;
81896;SDS011;71360;43.506;1.500;2023-12-14T14:06:46;15.23;;;4.80;;
81896;SDS011;71360;43.506;1.500;2023-12-14T14:09:11;5.60;;;2.00;;
81896;SDS011;71360;43.506;1.500;2023-12-14T14:11:37;6.38;;;1.60;;
81896;SDS011;71360;43.506;1.500;2023-12-14T14:14:03;9.67;;;2.30;;
81896;SDS011;71360;43.506;1.500;2023-12-14T14:16:29;8.43;;;2.60;;
81896;SDS011;71360;43.506;1.500;2023-12-14T14:18:56;6.72;;;2.13;;
81896;SDS011;71360;43.506;1.500;2023-12-14T14:21:21;10.47;;;3.33;;
81896;SDS011;71360;43.506;1.500;2023-12-14T14:23:47;7.90;;;1.87;;
81896;SDS011;71360;43.506;1.500;2023-12-14T14:26:12;9.27;;;2.40;;
81896;SDS011;71360;43.506;1.500;2023-12-14T14:28:38;7.77;;;2.67;;
81896;SDS011;71360;43.506;1.500;2023-12-14T14:31:03;6.97;;;1.53;;
81896;SDS011;71360;43.506;1.500;2023-12-14T14:33:29;8.50;;;2.72;;
81896;SDS011;71360;43.506;1.500;2023-12-14T14:35:54;7.53;;;1.80;;
81896;SDS011;71360;43.506;1.500;2023-12-14T14:38:20;9.27;;;2.67;;
81896;SDS011;71360;43.506;1.500;2023-12-14T14:40:46;12.05;;;3.65;;
81896;SDS011;71360;43.506;1.500;2023-12-14T14:43:11;9.80;;;2.00;;
81896;SDS011;71360;43.506;1.500;2023-12-14T14:45:37;6.32;;;1.80;;
81896;SDS011;71360;43.506;1.500;2023-12-14T14:48:03;10.87;;;3.23;;
81896;SDS011;71360;43.506;1.500;2023-12-14T14:50:33;7.88;;;2.00;;